Brookston, Indiana
Current Conditions -  °F | °C
As of 4:55 PM on Thursday 27 Nov 2014 (Local Time) from KMCX Reporting Station
Overcast Overcast  
Wind Chill: 15°   Ceiling: 2300
Heat Index: 26°   Visibility: 10mi
Dew Point: 19°   Wind: 13mph
Humidity: 75%   Direction: 290°WNW
Pressure: 30.36"   Gusts: NA
Location:  40.6°N, 86.87°W
Report Text: KMCX 272155Z AUTO 29011KT 10SM OVC023 M03/M07 A3036 RMK AO2 T10311070
Loading
Personal Weather Stations






























Interactive Weather Map New forecast layout! Learn more

10-Day Weather Forecast

Advertisements
Track Severe Weather on mobile